Time;durP1;ratioP1;P1;durP2;ratioP2;P2;SDS_P1;SDS_P2;PMS_P1;PMS_P2;Temp;Humidity;BMP_temperature;BMP_pressure;BME280_temperature;BME280_humidity;BME280_pressure;Samples;Min_cycle;Max_cycle;Signal;HPM_P1;HPM_P2
2022/05/06 00:02:46;;;;;;;11.95;7.00;;;;;;;;;;5123245;27;20384;-77
2022/05/06 00:05:35;;;;;;;26.92;9.02;;;;;;;;;;5131920;28;20040;-78
2022/05/06 00:08:23;;;;;;;25.27;7.90;;;;;;;;;;5116428;28;20039;-77
2022/05/06 00:11:08;;;;;;;14.43;7.78;;;;;;;;;;5132060;28;20044;-78
2022/05/06 00:13:54;;;;;;;10.88;6.65;;;;;;;;;;5132005;28;20043;-78
2022/05/06 00:16:39;;;;;;;13.45;6.95;;;;;;;;;;5138363;27;20039;-78
2022/05/06 00:19:25;;;;;;;8.05;5.70;;;;;;;;;;5133840;28;20479;-77
2022/05/06 00:22:11;;;;;;;11.18;5.95;;;;;;;;;;5133069;28;20047;-77
2022/05/06 00:24:56;;;;;;;8.20;5.25;;;;;;;;;;5132475;28;20043;-77
2022/05/06 00:27:42;;;;;;;10.48;5.93;;;;;;;;;;5116363;28;20142;-78
2022/05/06 00:30:26;;;;;;;10.70;6.20;;;;;;;;;;5131317;28;20395;-77
2022/05/06 00:33:13;;;;;;;9.88;5.55;;;;;;;;;;5132385;28;20380;-77
2022/05/06 00:36:03;;;;;;;9.15;5.85;;;;;;;;;;5123961;27;20051;-78
2022/05/06 00:38:48;;;;;;;10.18;6.80;;;;;;;;;;5131708;28;20043;-78
2022/05/06 00:41:34;;;;;;;13.30;6.28;;;;;;;;;;5123018;27;20051;-78
2022/05/06 00:44:22;;;;;;;11.60;6.40;;;;;;;;;;5131190;28;20047;-78
2022/05/06 00:47:07;;;;;;;8.13;6.07;;;;;;;;;;5131078;28;20040;-78
2022/05/06 00:49:52;;;;;;;10.55;6.07;;;;;;;;;;5122592;27;20032;-78
2022/05/06 00:52:39;;;;;;;9.65;6.20;;;;;;;;;;5122369;27;20048;-78
2022/05/06 00:55:24;;;;;;;9.35;5.93;;;;;;;;;;5131335;27;20043;-78
2022/05/06 00:58:11;;;;;;;11.05;6.45;;;;;;;;;;5124002;27;20036;-77
2022/05/06 01:00:57;;;;;;;8.88;5.95;;;;;;;;;;5124016;28;20036;-78
2022/05/06 01:03:43;;;;;;;8.68;6.20;;;;;;;;;;5117346;28;20404;-78
2022/05/06 01:06:28;;;;;;;8.05;5.85;;;;;;;;;;5108466;28;20043;-78
2022/05/06 01:09:16;;;;;;;9.85;5.88;;;;;;;;;;5109225;28;20043;-78
2022/05/06 01:12:02;;;;;;;12.55;6.53;;;;;;;;;;5108471;28;20047;-78
2022/05/06 01:14:48;;;;;;;24.35;13.52;;;;;;;;;;5094757;28;20047;-78
2022/05/06 01:17:40;;;;;;;26.00;13.95;;;;;;;;;;5116918;28;20052;-77
2022/05/06 01:20:26;;;;;;;27.23;12.50;;;;;;;;;;5128757;28;20045;-78
2022/05/06 01:23:12;;;;;;;10.48;6.82;;;;;;;;;;5108697;28;20044;-78
2022/05/06 01:25:57;;;;;;;10.48;6.50;;;;;;;;;;5108138;28;20051;-78
2022/05/06 01:28:43;;;;;;;9.45;6.20;;;;;;;;;;5108175;28;20036;-78
2022/05/06 01:31:31;;;;;;;12.13;6.28;;;;;;;;;;5108232;28;20043;-78
2022/05/06 01:34:17;;;;;;;10.90;6.25;;;;;;;;;;5108219;28;20043;-78
2022/05/06 01:37:03;;;;;;;12.15;7.00;;;;;;;;;;5116112;28;20044;-78
2022/05/06 01:39:55;;;;;;;15.75;7.47;;;;;;;;;;5116478;28;20047;-78
2022/05/06 01:42:43;;;;;;;16.20;7.35;;;;;;;;;;5107846;28;20492;-78
2022/05/06 01:45:32;;;;;;;16.13;6.65;;;;;;;;;;5107793;28;20047;-78
2022/05/06 01:48:21;;;;;;;18.42;6.15;;;;;;;;;;5093806;28;20043;-78
2022/05/06 01:51:14;;;;;;;11.13;5.95;;;;;;;;;;5107642;28;20055;-78
2022/05/06 01:53:59;;;;;;;10.07;4.97;;;;;;;;;;5107556;28;20040;-78
2022/05/06 01:56:46;;;;;;;8.00;5.05;;;;;;;;;;5115581;28;20052;-78
2022/05/06 01:59:30;;;;;;;8.73;5.10;;;;;;;;;;5107732;28;20043;-77
2022/05/06 02:02:29;;;;;;;7.90;4.97;;;;;;;;;;5107682;28;20047;-78
2022/05/06 02:05:17;;;;;;;8.45;4.90;;;;;;;;;;5107492;28;20407;-78
2022/05/06 02:08:04;;;;;;;6.88;4.60;;;;;;;;;;5106488;28;20043;-78
2022/05/06 02:10:51;;;;;;;10.50;4.65;;;;;;;;;;5107256;28;20468;-78
2022/05/06 02:13:37;;;;;;;8.48;4.50;;;;;;;;;;5116404;28;20036;-78
2022/05/06 02:16:41;;;;;;;10.20;5.78;;;;;;;;;;5103692;28;20468;-78
2022/05/06 02:19:56;;;;;;;7.75;4.85;;;;;;;;;;5107800;28;20048;-78
2022/05/06 02:22:55;;;;;;;6.60;4.53;;;;;;;;;;5106958;28;20048;-78
2022/05/06 02:26:06;;;;;;;6.28;4.55;;;;;;;;;;5122296;28;20043;-79
2022/05/06 02:29:11;;;;;;;5.88;4.45;;;;;;;;;;5121988;28;20480;-79
2022/05/06 02:35:04;;;;;;;7.63;4.68;;;;;;;;;;5115280;28;20040;-78
2022/05/06 02:37:49;;;;;;;6.80;4.53;;;;;;;;;;5107141;28;20408;-76
2022/05/06 02:40:37;;;;;;;6.75;4.78;;;;;;;;;;5106751;28;20043;-77
2022/05/06 02:43:23;;;;;;;6.82;4.53;;;;;;;;;;5107261;28;20039;-77
2022/05/06 02:46:11;;;;;;;6.57;4.63;;;;;;;;;;5106918;28;20043;-78
2022/05/06 02:48:56;;;;;;;7.03;4.53;;;;;;;;;;5106663;28;20468;-77
2022/05/06 02:51:42;;;;;;;5.60;4.55;;;;;;;;;;5106342;28;20039;-77
2022/05/06 02:54:29;;;;;;;6.97;4.25;;;;;;;;;;5116026;28;20043;-79
2022/05/06 02:57:15;;;;;;;9.00;4.75;;;;;;;;;;5114185;28;20039;-79
2022/05/06 03:00:04;;;;;;;5.65;4.20;;;;;;;;;;5106391;28;20040;-78
2022/05/06 03:02:51;;;;;;;5.18;4.03;;;;;;;;;;5106074;28;20043;-78
2022/05/06 03:05:39;;;;;;;5.70;4.28;;;;;;;;;;5106409;28;20036;-79
2022/05/06 03:08:25;;;;;;;6.88;4.13;;;;;;;;;;5106723;28;20044;-78
2022/05/06 03:11:10;;;;;;;8.73;5.00;;;;;;;;;;5114664;28;20047;-78
2022/05/06 03:14:04;;;;;;;5.85;4.32;;;;;;;;;;5106005;28;20476;-78
2022/05/06 03:16:57;;;;;;;6.18;4.30;;;;;;;;;;5105895;28;20484;-78
2022/05/06 03:19:43;;;;;;;6.63;4.60;;;;;;;;;;5105878;28;20039;-79
2022/05/06 03:22:29;;;;;;;8.98;4.78;;;;;;;;;;5114732;28;20044;-78
2022/05/06 03:25:14;;;;;;;8.02;4.70;;;;;;;;;;5121307;28;20488;-79
2022/05/06 03:28:07;;;;;;;5.03;4.22;;;;;;;;;;5106210;28;20040;-79
2022/05/06 03:30:52;;;;;;;5.93;4.50;;;;;;;;;;5113850;28;20044;-79
2022/05/06 03:33:52;;;;;;;7.60;4.63;;;;;;;;;;5124434;28;20048;-79
2022/05/06 03:36:44;;;;;;;8.15;4.63;;;;;;;;;;5105488;28;20488;-79
2022/05/06 03:39:33;;;;;;;7.63;4.68;;;;;;;;;;5114134;28;20036;-79
2022/05/06 03:42:22;;;;;;;6.43;4.85;;;;;;;;;;5105653;28;20484;-80
2022/05/06 03:45:09;;;;;;;9.73;4.97;;;;;;;;;;5105963;28;20043;-79
2022/05/06 03:47:58;;;;;;;9.88;6.13;;;;;;;;;;5105937;28;20039;-79
2022/05/06 03:53:58;;;;;;;9.40;7.25;;;;;;;;;;5105490;28;20469;-78
2022/05/06 03:56:44;;;;;;;10.95;7.90;;;;;;;;;;5100296;28;20047;-79
2022/05/06 03:59:30;;;;;;;13.52;7.57;;;;;;;;;;5105242;28;20047;-78
2022/05/06 04:02:22;;;;;;;13.07;7.50;;;;;;;;;;5105434;28;20036;-79
2022/05/06 04:05:09;;;;;;;12.18;7.40;;;;;;;;;;5113927;28;20043;-78
2022/05/06 04:07:56;;;;;;;14.75;7.18;;;;;;;;;;5105338;28;20043;-79
2022/05/06 04:10:42;;;;;;;12.50;6.22;;;;;;;;;;5105669;28;20408;-78
2022/05/06 04:13:27;;;;;;;9.50;5.35;;;;;;;;;;5105399;28;20040;-78
2022/05/06 04:16:14;;;;;;;7.45;5.03;;;;;;;;;;5105406;28;20040;-79
2022/05/06 04:19:00;;;;;;;9.57;5.07;;;;;;;;;;5113808;28;20043;-79
2022/05/06 04:24:57;;;;;;;6.97;4.50;;;;;;;;;;5105169;28;20059;-79
2022/05/06 04:27:46;;;;;;;5.32;4.00;;;;;;;;;;5105156;28;20051;-79
2022/05/06 04:30:32;;;;;;;7.05;4.40;;;;;;;;;;5105275;28;20032;-78
2022/05/06 04:33:29;;;;;;;20.10;7.07;;;;;;;;;;5108788;28;20488;-78
2022/05/06 04:36:14;;;;;;;9.02;5.72;;;;;;;;;;5117597;28;20047;-78
2022/05/06 04:39:04;;;;;;;10.43;5.55;;;;;;;;;;5109097;28;20051;-78
2022/05/06 04:41:53;;;;;;;11.20;5.45;;;;;;;;;;5108783;28;20047;-78
2022/05/06 04:44:45;;;;;;;9.32;5.60;;;;;;;;;;5109149;28;20039;-78
2022/05/06 04:47:31;;;;;;;14.57;6.93;;;;;;;;;;5109299;28;20039;-78
2022/05/06 04:50:16;;;;;;;21.17;9.32;;;;;;;;;;5117480;28;20040;-78
2022/05/06 04:53:05;;;;;;;20.67;9.75;;;;;;;;;;5108694;28;20047;-78
2022/05/06 04:55:50;;;;;;;17.15;10.13;;;;;;;;;;5106123;28;20044;-78
2022/05/06 04:58:40;;;;;;;21.70;9.13;;;;;;;;;;5108483;28;20040;-78
2022/05/06 05:01:30;;;;;;;15.13;10.25;;;;;;;;;;5108727;28;20035;-78
2022/05/06 05:04:16;;;;;;;17.67;10.55;;;;;;;;;;5108550;28;20040;-78
2022/05/06 05:07:04;;;;;;;24.67;12.60;;;;;;;;;;5108629;28;20044;-78
2022/05/06 05:09:51;;;;;;;14.07;9.10;;;;;;;;;;5108197;28;20044;-78
2022/05/06 05:12:40;;;;;;;19.75;10.13;;;;;;;;;;5108667;28;20396;-78
2022/05/06 05:15:25;;;;;;;18.88;7.32;;;;;;;;;;5108357;28;20043;-77
2022/05/06 05:18:12;;;;;;;16.27;8.75;;;;;;;;;;5116958;28;20044;-78
2022/05/06 05:20:57;;;;;;;15.20;8.70;;;;;;;;;;5108462;28;20047;-77
2022/05/06 05:23:43;;;;;;;19.08;9.93;;;;;;;;;;5108238;28;20048;-77
2022/05/06 05:26:29;;;;;;;12.48;7.50;;;;;;;;;;5108179;28;20048;-77
2022/05/06 05:29:14;;;;;;;13.02;7.63;;;;;;;;;;5108159;28;20044;-77
2022/05/06 05:32:00;;;;;;;13.95;8.10;;;;;;;;;;5116412;28;20043;-79
2022/05/06 05:34:46;;;;;;;12.93;8.05;;;;;;;;;;5107871;28;20492;-78
2022/05/06 05:37:35;;;;;;;20.17;8.18;;;;;;;;;;5107846;28;20040;-78
2022/05/06 05:40:24;;;;;;;14.52;7.95;;;;;;;;;;5107780;28;20044;-79
2022/05/06 05:48:19;;;;;;;19.38;8.63;;;;;;;;;;5110253;28;20031;-78
2022/05/06 05:49:23;;;;;;;24.83;11.43;;;;;;;;;;5107860;28;20035;-78
2022/05/06 05:52:09;;;;;;;31.40;12.07;;;;;;;;;;5107900;28;20473;-78
2022/05/06 05:54:55;;;;;;;26.85;11.70;;;;;;;;;;5107717;28;20047;-77
2022/05/06 05:57:40;;;;;;;27.23;12.25;;;;;;;;;;5107357;28;20047;-78
2022/05/06 06:00:28;;;;;;;34.80;16.25;;;;;;;;;;5107406;28;20047;-78
2022/05/06 06:03:17;;;;;;;30.85;12.70;;;;;;;;;;5107628;28;20044;-77
2022/05/06 06:06:03;;;;;;;21.95;10.55;;;;;;;;;;5107540;28;20392;-78
2022/05/06 06:08:49;;;;;;;22.67;11.63;;;;;;;;;;5107552;28;20043;-77
2022/05/06 06:11:35;;;;;;;20.60;11.00;;;;;;;;;;5118646;28;20036;-78
2022/05/06 06:14:20;;;;;;;33.05;10.98;;;;;;;;;;5109951;28;20039;-78
2022/05/06 06:17:06;;;;;;;23.35;10.40;;;;;;;;;;5109797;28;20036;-78
2022/05/06 06:19:52;;;;;;;27.95;10.30;;;;;;;;;;5107876;28;20039;-77
2022/05/06 06:22:37;;;;;;;22.90;9.23;;;;;;;;;;5107172;28;20048;-77
2022/05/06 06:25:24;;;;;;;24.63;9.45;;;;;;;;;;5107136;28;20036;-77
2022/05/06 06:28:12;;;;;;;23.40;9.07;;;;;;;;;;5106825;28;20400;-78
2022/05/06 06:30:58;;;;;;;20.67;9.70;;;;;;;;;;5106758;28;20043;-79
2022/05/06 06:33:43;;;;;;;19.30;9.05;;;;;;;;;;5115429;28;20481;-78
2022/05/06 06:36:33;;;;;;;28.88;10.82;;;;;;;;;;5121869;28;20040;-78
2022/05/06 06:39:20;;;;;;;22.27;10.90;;;;;;;;;;5107247;28;20039;-76
2022/05/06 06:42:09;;;;;;;28.58;10.32;;;;;;;;;;5106402;28;20035;-75
2022/05/06 06:45:09;;;;;;;25.13;11.07;;;;;;;;;;5106285;28;20488;-75
2022/05/06 06:48:14;;;;;;;14.32;8.05;;;;;;;;;;5115023;28;20043;-76
2022/05/06 06:51:27;;;;;;;18.38;7.55;;;;;;;;;;5104419;28;20036;-78
2022/05/06 06:54:13;;;;;;;14.40;7.00;;;;;;;;;;5119137;28;20070;-79
2022/05/06 06:56:58;;;;;;;11.23;6.95;;;;;;;;;;5113323;28;20051;-79
2022/05/06 06:59:44;;;;;;;14.20;6.95;;;;;;;;;;5114361;28;20040;-79
2022/05/06 07:02:29;;;;;;;15.35;6.20;;;;;;;;;;5121217;28;20393;-80
2022/05/06 07:05:15;;;;;;;13.25;6.18;;;;;;;;;;5113952;28;20047;-80
2022/05/06 07:14:08;;;;;;;13.25;5.82;;;;;;;;;;5114666;28;20031;-79
2022/05/06 07:16:54;;;;;;;7.30;4.78;;;;;;;;;;5114040;28;20396;-79
2022/05/06 07:19:40;;;;;;;14.68;5.70;;;;;;;;;;5114774;28;20040;-80
2022/05/06 07:22:25;;;;;;;10.38;4.55;;;;;;;;;;5114714;28;20392;-79
2022/05/06 07:25:11;;;;;;;9.88;3.63;;;;;;;;;;5114517;28;20040;-80
2022/05/06 07:27:57;;;;;;;6.50;2.63;;;;;;;;;;5114597;28;20048;-81
2022/05/06 07:30:43;;;;;;;5.95;3.03;;;;;;;;;;5121273;28;20028;-81
2022/05/06 07:33:29;;;;;;;6.68;3.03;;;;;;;;;;5114605;28;20396;-80
2022/05/06 07:36:14;;;;;;;8.88;2.95;;;;;;;;;;5120863;28;20043;-79
2022/05/06 07:39:00;;;;;;;7.22;2.80;;;;;;;;;;5114258;28;20039;-76
2022/05/06 07:41:46;;;;;;;4.78;2.92;;;;;;;;;;5114125;28;20047;-79
2022/05/06 07:44:31;;;;;;;4.47;2.90;;;;;;;;;;5114015;28;20047;-79
2022/05/06 07:47:17;;;;;;;3.80;2.70;;;;;;;;;;5105788;28;20396;-80
2022/05/06 07:50:03;;;;;;;11.38;3.15;;;;;;;;;;5105821;28;20044;-79
2022/05/06 07:52:50;;;;;;;5.90;2.80;;;;;;;;;;5114239;28;20444;-77
2022/05/06 07:55:36;;;;;;;8.25;3.00;;;;;;;;;;5114510;28;20476;-77
2022/05/06 07:58:22;;;;;;;8.75;3.03;;;;;;;;;;5116697;28;20055;-77
2022/05/06 08:01:09;;;;;;;7.05;2.28;;;;;;;;;;5121627;28;20480;-78
2022/05/06 08:06:57;;;;;;;2.97;2.15;;;;;;;;;;5123174;28;20043;-77
2022/05/06 08:09:42;;;;;;;7.05;2.70;;;;;;;;;;5126687;28;20044;-77
2022/05/06 08:12:28;;;;;;;5.97;3.30;;;;;;;;;;5128883;28;20040;-76
2022/05/06 08:15:14;;;;;;;5.68;3.20;;;;;;;;;;5123925;28;20035;-78
2022/05/06 08:17:59;;;;;;;6.68;3.10;;;;;;;;;;5129533;28;20480;-78
2022/05/06 08:20:46;;;;;;;3.25;2.00;;;;;;;;;;5130765;28;20052;-79
2022/05/06 08:23:31;;;;;;;2.80;2.17;;;;;;;;;;5130078;28;20065;-79
2022/05/06 08:26:17;;;;;;;3.00;2.63;;;;;;;;;;5123851;28;20044;-78
2022/05/06 08:29:03;;;;;;;8.02;2.38;;;;;;;;;;5124069;28;20051;-80
2022/05/06 08:31:50;;;;;;;5.43;2.05;;;;;;;;;;5124453;28;20044;-79
2022/05/06 08:34:35;;;;;;;9.10;3.22;;;;;;;;;;5117763;28;20032;-78
2022/05/06 08:37:22;;;;;;;9.77;3.17;;;;;;;;;;5117400;28;20048;-78
2022/05/06 08:40:20;;;;;;;5.55;2.78;;;;;;;;;;5117555;28;20036;-79
2022/05/06 08:43:05;;;;;;;7.10;3.20;;;;;;;;;;5094509;28;20047;-79
2022/05/06 08:52:05;;;;;;;7.78;2.53;;;;;;;;;;5117533;28;20055;-79
2022/05/06 08:54:51;;;;;;;4.85;2.80;;;;;;;;;;5123878;28;20388;-79
2022/05/06 08:57:37;;;;;;;5.80;2.80;;;;;;;;;;5116838;28;20403;-78
2022/05/06 09:00:26;;;;;;;3.70;2.22;;;;;;;;;;5123987;28;20047;-77
2022/05/06 09:03:15;;;;;;;7.90;3.00;;;;;;;;;;5124057;28;20043;-76
2022/05/06 09:06:01;;;;;;;4.18;3.05;;;;;;;;;;5123867;28;20039;-81
2022/05/06 09:08:47;;;;;;;4.82;3.20;;;;;;;;;;5116994;28;20043;-79
2022/05/06 09:17:39;;;;;;;7.90;2.90;;;;;;;;;;5116351;28;20464;-80
2022/05/06 09:20:27;;;;;;;6.55;3.13;;;;;;;;;;5123642;28;20047;-78
2022/05/06 09:23:29;;;;;;;5.68;2.83;;;;;;;;;;5116731;28;20392;-78
2022/05/06 09:26:18;;;;;;;3.83;2.83;;;;;;;;;;5116738;28;20476;-76
2022/05/06 09:29:04;;;;;;;12.88;2.85;;;;;;;;;;5123343;28;20396;-78
2022/05/06 09:31:54;;;;;;;4.13;2.88;;;;;;;;;;5116705;28;20043;-78
2022/05/06 09:34:43;;;;;;;4.85;3.00;;;;;;;;;;5123166;28;20051;-78
2022/05/06 09:37:48;;;;;;;6.78;3.15;;;;;;;;;;5122878;28;20069;-77
2022/05/06 09:40:34;;;;;;;5.60;3.05;;;;;;;;;;5123220;28;20040;-78
2022/05/06 09:43:19;;;;;;;8.63;3.40;;;;;;;;;;5123015;28;20047;-80
2022/05/06 09:46:21;;;;;;;5.63;3.38;;;;;;;;;;5123191;28;20510;-79
2022/05/06 09:49:06;;;;;;;4.75;2.83;;;;;;;;;;5122884;28;20040;-79
2022/05/06 09:51:52;;;;;;;6.40;3.30;;;;;;;;;;5122808;28;20040;-78
2022/05/06 09:54:41;;;;;;;7.65;3.20;;;;;;;;;;5123087;28;20044;-78
2022/05/06 09:57:29;;;;;;;4.15;2.47;;;;;;;;;;5115560;28;20039;-77
2022/05/06 10:00:14;;;;;;;7.03;2.75;;;;;;;;;;5115809;28;20102;-79
2022/05/06 10:03:03;;;;;;;4.93;2.63;;;;;;;;;;5116388;28;20044;-79
2022/05/06 10:05:49;;;;;;;4.68;3.15;;;;;;;;;;5116103;28;20135;-78
2022/05/06 10:08:38;;;;;;;8.00;3.08;;;;;;;;;;5131846;28;20043;-78
2022/05/06 10:11:25;;;;;;;9.88;3.30;;;;;;;;;;5120732;28;20043;-79
2022/05/06 10:14:14;;;;;;;6.30;3.60;;;;;;;;;;5107558;28;20044;-80
2022/05/06 10:16:59;;;;;;;14.85;3.65;;;;;;;;;;5115391;28;20035;-78
2022/05/06 10:19:58;;;;;;;3.53;2.60;;;;;;;;;;5115761;28;20372;-77
2022/05/06 10:23:02;;;;;;;4.90;2.90;;;;;;;;;;5122126;28;20036;-76
2022/05/06 10:25:49;;;;;;;5.15;3.60;;;;;;;;;;5115393;28;20036;-79
2022/05/06 10:35:01;;;;;;;4.25;3.00;;;;;;;;;;5115103;28;20051;-79
2022/05/06 10:37:47;;;;;;;9.98;3.28;;;;;;;;;;5106345;28;20039;-80
2022/05/06 10:40:33;;;;;;;3.80;2.63;;;;;;;;;;5115534;28;20051;-78
2022/05/06 10:43:40;;;;;;;7.25;2.78;;;;;;;;;;5122127;28;20044;-79
2022/05/06 10:46:37;;;;;;;5.28;3.00;;;;;;;;;;5114839;28;20408;-79
2022/05/06 10:49:34;;;;;;;2.70;2.13;;;;;;;;;;5122394;28;20040;-79
2022/05/06 10:52:29;;;;;;;6.95;2.95;;;;;;;;;;5115083;28;20039;-79
2022/05/06 10:55:15;;;;;;;4.05;2.85;;;;;;;;;;5114548;28;20036;-79
2022/05/06 10:58:03;;;;;;;4.93;3.00;;;;;;;;;;5115452;28;20039;-79
2022/05/06 11:00:49;;;;;;;7.03;3.10;;;;;;;;;;5114660;28;20047;-80
2022/05/06 11:03:34;;;;;;;5.15;3.17;;;;;;;;;;5114708;28;20039;-77
2022/05/06 11:06:21;;;;;;;3.38;2.65;;;;;;;;;;5114542;28;20472;-76
2022/05/06 11:09:08;;;;;;;9.05;2.60;;;;;;;;;;5121677;28;20044;-77
2022/05/06 11:11:54;;;;;;;8.20;2.85;;;;;;;;;;5121447;28;20040;-76
2022/05/06 11:14:39;;;;;;;8.05;2.53;;;;;;;;;;5105781;28;20039;-77
2022/05/06 11:17:25;;;;;;;8.40;3.53;;;;;;;;;;5121055;28;20035;-77
2022/05/06 11:20:23;;;;;;;7.88;3.30;;;;;;;;;;5114236;28;20043;-77
2022/05/06 11:23:15;;;;;;;4.72;3.17;;;;;;;;;;5114609;28;20039;-78
2022/05/06 11:26:01;;;;;;;7.13;3.00;;;;;;;;;;5121504;28;20051;-78
2022/05/06 11:29:03;;;;;;;4.45;2.33;;;;;;;;;;5121689;28;20047;-79
2022/05/06 11:31:48;;;;;;;13.20;2.55;;;;;;;;;;5121567;28;20040;-78
2022/05/06 11:34:34;;;;;;;11.52;3.10;;;;;;;;;;5114291;28;20048;-78
2022/05/06 11:37:27;;;;;;;5.43;3.10;;;;;;;;;;5114226;28;20043;-81
2022/05/06 11:40:32;;;;;;;7.70;2.80;;;;;;;;;;5120505;28;20040;-77
2022/05/06 11:43:20;;;;;;;7.30;2.78;;;;;;;;;;5120864;28;20061;-77
2022/05/06 11:48:32;;;;;;;5.28;3.02;;;;;;;;;;4347669;22;13596890;-79
2022/05/06 11:51:31;;;;;;;4.60;2.58;;;;;;;;;;5115103;28;20039;-78
2022/05/06 11:54:16;;;;;;;3.50;2.53;;;;;;;;;;5082332;22;20049;-78
2022/05/06 11:57:02;;;;;;;6.78;2.58;;;;;;;;;;5074922;28;20045;-77
2022/05/06 11:59:47;;;;;;;5.72;2.70;;;;;;;;;;5070670;28;20049;-78
2022/05/06 12:02:33;;;;;;;4.43;2.78;;;;;;;;;;5070767;28;20048;-78
2022/05/06 12:05:19;;;;;;;5.63;2.35;;;;;;;;;;5074186;28;20052;-77
2022/05/06 12:08:07;;;;;;;6.22;2.42;;;;;;;;;;5069220;28;20501;-77
2022/05/06 12:10:59;;;;;;;5.57;2.38;;;;;;;;;;5070642;28;20048;-77
2022/05/06 12:13:44;;;;;;;3.97;2.33;;;;;;;;;;5072378;28;20481;-77
2022/05/06 12:16:29;;;;;;;5.13;2.50;;;;;;;;;;5070287;28;20144;-78
2022/05/06 12:19:15;;;;;;;7.78;2.25;;;;;;;;;;5070522;28;20052;-77
2022/05/06 12:22:24;;;;;;;7.30;2.58;;;;;;;;;;5071049;28;20045;-78
2022/05/06 12:25:15;;;;;;;5.68;1.90;;;;;;;;;;5073626;28;20397;-78
2022/05/06 12:28:09;;;;;;;4.70;2.90;;;;;;;;;;5077202;28;20124;-77
2022/05/06 12:30:57;;;;;;;3.53;2.45;;;;;;;;;;5070534;28;20489;-77
2022/05/06 12:33:45;;;;;;;6.47;2.30;;;;;;;;;;5070202;28;20048;-78
2022/05/06 12:36:32;;;;;;;2.83;1.90;;;;;;;;;;5070867;28;20044;-78
2022/05/06 12:39:22;;;;;;;5.05;2.20;;;;;;;;;;5076729;28;20048;-78
2022/05/06 12:42:15;;;;;;;3.50;1.83;;;;;;;;;;5077092;28;20041;-78
2022/05/06 12:45:05;;;;;;;5.57;2.65;;;;;;;;;;5070360;28;20048;-76
2022/05/06 12:50:53;;;;;;;7.80;2.42;;;;;;;;;;5075876;28;20441;-76
2022/05/06 12:53:38;;;;;;;4.15;2.30;;;;;;;;;;5072559;28;20036;-77
2022/05/06 12:56:25;;;;;;;7.28;2.30;;;;;;;;;;5076483;28;20052;-75
2022/05/06 12:59:11;;;;;;;4.32;2.50;;;;;;;;;;5065527;28;20049;-77
2022/05/06 13:01:56;;;;;;;8.65;2.63;;;;;;;;;;5062383;28;20041;-77
2022/05/06 13:04:43;;;;;;;3.58;2.78;;;;;;;;;;5056889;28;20045;-77
2022/05/06 13:07:27;;;;;;;4.32;2.47;;;;;;;;;;5055337;28;20037;-75
2022/05/06 13:10:12;;;;;;;4.47;2.85;;;;;;;;;;5055842;28;20485;-75
2022/05/06 13:12:59;;;;;;;2.60;1.80;;;;;;;;;;5056015;28;20041;-75
2022/05/06 13:15:47;;;;;;;7.60;3.53;;;;;;;;;;5062110;28;20045;-75
2022/05/06 13:18:33;;;;;;;3.85;2.53;;;;;;;;;;5082775;23;20044;-74
2022/05/06 13:21:20;;;;;;;4.80;2.03;;;;;;;;;;5062660;28;20049;-75
2022/05/06 13:24:07;;;;;;;3.55;2.20;;;;;;;;;;5062804;28;20041;-75
2022/05/06 13:26:53;;;;;;;3.88;2.47;;;;;;;;;;5055217;28;20045;-76
2022/05/06 13:29:38;;;;;;;6.72;2.58;;;;;;;;;;5062911;28;20482;-75
2022/05/06 13:32:24;;;;;;;9.98;2.88;;;;;;;;;;5054911;28;20041;-74
2022/05/06 13:35:10;;;;;;;5.43;2.30;;;;;;;;;;5062564;28;20045;-75
2022/05/06 13:37:55;;;;;;;3.22;1.90;;;;;;;;;;5056154;28;20045;-76
2022/05/06 13:40:41;;;;;;;3.58;2.30;;;;;;;;;;5061924;28;20045;-75
2022/05/06 13:43:26;;;;;;;7.03;2.30;;;;;;;;;;5062566;28;20389;-75
2022/05/06 13:46:12;;;;;;;5.38;2.80;;;;;;;;;;5055249;28;20517;-76
2022/05/06 13:48:58;;;;;;;6.13;2.90;;;;;;;;;;5055577;28;20049;-84
2022/05/06 13:51:43;;;;;;;5.07;2.50;;;;;;;;;;5056302;28;20040;-83
2022/05/06 13:54:29;;;;;;;5.78;2.40;;;;;;;;;;5055018;28;20037;-81
2022/05/06 14:00:24;;;;;;;2.88;1.92;;;;;;;;;;5055321;28;20041;-79
2022/05/06 14:03:09;;;;;;;4.90;2.28;;;;;;;;;;5055127;28;20053;-77
2022/05/06 14:05:55;;;;;;;4.72;2.72;;;;;;;;;;5061894;28;20052;-78
2022/05/06 14:08:41;;;;;;;5.60;2.40;;;;;;;;;;5061105;28;20049;-77
2022/05/06 14:11:28;;;;;;;8.90;3.00;;;;;;;;;;5054347;28;20070;-78
2022/05/06 14:14:14;;;;;;;5.45;2.30;;;;;;;;;;5054806;28;20489;-77
2022/05/06 14:17:00;;;;;;;3.38;2.40;;;;;;;;;;5054581;28;20049;-78
2022/05/06 14:19:45;;;;;;;7.40;2.78;;;;;;;;;;5054684;28;20057;-79
2022/05/06 14:22:32;;;;;;;3.13;2.30;;;;;;;;;;5060909;28;20489;-80
2022/05/06 14:25:20;;;;;;;6.03;2.60;;;;;;;;;;5061964;28;20501;-79
2022/05/06 14:28:07;;;;;;;5.95;2.67;;;;;;;;;;5054409;28;20413;-78
2022/05/06 14:30:52;;;;;;;2.35;1.95;;;;;;;;;;5061382;28;20049;-79
2022/05/06 14:33:38;;;;;;;6.55;2.80;;;;;;;;;;5061838;28;20041;-78
2022/05/06 14:36:24;;;;;;;9.65;3.00;;;;;;;;;;5060669;28;20044;-79
2022/05/06 14:39:09;;;;;;;3.55;2.30;;;;;;;;;;5061494;28;20041;-78
2022/05/06 14:41:55;;;;;;;5.43;2.45;;;;;;;;;;5060772;28;20041;-78
2022/05/06 14:44:40;;;;;;;4.75;2.38;;;;;;;;;;5054430;28;20045;-78
2022/05/06 14:47:25;;;;;;;6.10;2.83;;;;;;;;;;5054545;28;20406;-77
2022/05/06 14:50:12;;;;;;;2.70;2.08;;;;;;;;;;5053167;28;20045;-79
2022/05/06 14:52:57;;;;;;;5.20;2.70;;;;;;;;;;5061468;28;20040;-77
2022/05/06 14:55:42;;;;;;;6.45;3.20;;;;;;;;;;5055054;28;20374;-78
2022/05/06 14:58:28;;;;;;;7.32;2.92;;;;;;;;;;5060598;28;20041;-77
2022/05/06 15:01:13;;;;;;;7.90;3.13;;;;;;;;;;5060720;28;20045;-77
2022/05/06 15:03:59;;;;;;;12.07;3.47;;;;;;;;;;5060539;28;20037;-77
2022/05/06 15:06:45;;;;;;;4.55;2.90;;;;;;;;;;5054484;28;20041;-77
2022/05/06 15:09:31;;;;;;;7.80;3.20;;;;;;;;;;5054782;28;20478;-78
2022/05/06 15:12:16;;;;;;;5.97;3.05;;;;;;;;;;5059223;28;20049;-78
2022/05/06 15:15:01;;;;;;;9.30;3.30;;;;;;;;;;5061079;28;20041;-79
2022/05/06 15:17:49;;;;;;;5.82;3.13;;;;;;;;;;5053746;28;20041;-80
2022/05/06 15:20:36;;;;;;;5.15;3.10;;;;;;;;;;5054096;28;20044;-77
2022/05/06 15:23:23;;;;;;;5.43;2.80;;;;;;;;;;5054094;28;20045;-78
2022/05/06 15:26:08;;;;;;;5.97;3.22;;;;;;;;;;5060387;28;20045;-79
2022/05/06 15:28:53;;;;;;;5.22;2.90;;;;;;;;;;5053858;28;20041;-78
2022/05/06 15:31:38;;;;;;;5.82;2.88;;;;;;;;;;5052900;28;20048;-80
2022/05/06 15:34:24;;;;;;;4.20;3.00;;;;;;;;;;5060649;28;20404;-78
2022/05/06 15:37:10;;;;;;;11.90;3.78;;;;;;;;;;5054117;28;20041;-79
2022/05/06 15:39:54;;;;;;;8.50;3.03;;;;;;;;;;5053228;28;20093;-79
2022/05/06 15:42:39;;;;;;;5.47;3.30;;;;;;;;;;5053591;28;20385;-79
2022/05/06 15:45:25;;;;;;;13.05;3.20;;;;;;;;;;5059921;28;20045;-79
2022/05/06 15:48:11;;;;;;;8.73;3.75;;;;;;;;;;5053068;28;20048;-77
2022/05/06 15:50:56;;;;;;;5.03;3.30;;;;;;;;;;5060363;28;20049;-77
2022/05/06 15:53:41;;;;;;;7.53;2.90;;;;;;;;;;5059959;28;20037;-78
2022/05/06 15:56:29;;;;;;;4.95;2.67;;;;;;;;;;5059295;28;20049;-77
2022/05/06 15:59:15;;;;;;;5.45;3.28;;;;;;;;;;5059427;28;20048;-77
2022/05/06 16:01:59;;;;;;;3.63;2.55;;;;;;;;;;5059641;28;20045;-77
2022/05/06 16:04:44;;;;;;;6.43;3.50;;;;;;;;;;5060163;28;20041;-77
2022/05/06 16:07:37;;;;;;;6.47;3.10;;;;;;;;;;5059660;28;20402;-77
2022/05/06 16:10:25;;;;;;;9.00;4.30;;;;;;;;;;5060058;28;20044;-78
2022/05/06 16:13:12;;;;;;;7.63;4.18;;;;;;;;;;5059231;28;20048;-78
2022/05/06 16:15:57;;;;;;;5.28;3.47;;;;;;;;;;5051887;28;20053;-77
2022/05/06 16:18:44;;;;;;;6.43;3.78;;;;;;;;;;5057013;28;20045;-77
2022/05/06 16:21:28;;;;;;;4.60;2.67;;;;;;;;;;5059455;28;20473;-74
2022/05/06 16:24:13;;;;;;;8.25;3.85;;;;;;;;;;5089023;23;20048;-75
2022/05/06 16:26:59;;;;;;;7.57;3.75;;;;;;;;;;5092919;28;20036;-74
2022/05/06 16:29:44;;;;;;;7.80;3.58;;;;;;;;;;5093063;28;20493;-78
2022/05/06 16:32:30;;;;;;;9.85;3.78;;;;;;;;;;5084962;28;20035;-79
2022/05/06 16:38:23;;;;;;;9.65;3.35;;;;;;;;;;5103870;28;20044;-78
2022/05/06 16:41:09;;;;;;;6.45;3.35;;;;;;;;;;5104459;28;20044;-79
2022/05/06 16:43:54;;;;;;;6.13;3.50;;;;;;;;;;5097153;28;20044;-79
2022/05/06 16:46:40;;;;;;;9.45;3.40;;;;;;;;;;5096929;28;20052;-77
2022/05/06 16:49:25;;;;;;;8.00;3.53;;;;;;;;;;5096604;28;20040;-77
2022/05/06 16:52:11;;;;;;;9.95;3.40;;;;;;;;;;5097297;28;20044;-77
2022/05/06 16:55:00;;;;;;;8.55;3.33;;;;;;;;;;5096455;28;20493;-77
2022/05/06 16:57:46;;;;;;;8.57;3.50;;;;;;;;;;5096654;28;20044;-77
2022/05/06 17:00:32;;;;;;;5.70;3.65;;;;;;;;;;5097105;28;20040;-77
2022/05/06 17:03:18;;;;;;;8.23;3.58;;;;;;;;;;5096206;28;20040;-78
2022/05/06 17:06:03;;;;;;;7.22;3.45;;;;;;;;;;5103281;28;20508;-77
2022/05/06 17:08:48;;;;;;;7.03;3.53;;;;;;;;;;5103256;28;20478;-77
2022/05/06 17:11:35;;;;;;;7.47;3.80;;;;;;;;;;5102924;28;20392;-77
2022/05/06 17:14:22;;;;;;;10.25;3.97;;;;;;;;;;5103328;28;20283;-78
2022/05/06 17:17:07;;;;;;;8.65;4.32;;;;;;;;;;5102881;28;20048;-77
2022/05/06 17:19:55;;;;;;;12.05;4.38;;;;;;;;;;5103334;28;20048;-77
2022/05/06 17:22:43;;;;;;;7.38;4.25;;;;;;;;;;5096172;28;20044;-78
2022/05/06 17:25:29;;;;;;;7.50;3.92;;;;;;;;;;5102475;28;20040;-77
2022/05/06 17:28:14;;;;;;;6.68;4.10;;;;;;;;;;5102573;28;20048;-76
2022/05/06 17:31:07;;;;;;;7.65;4.25;;;;;;;;;;5095592;28;20040;-77
2022/05/06 17:33:51;;;;;;;10.98;4.75;;;;;;;;;;5102757;28;20040;-77